»·PEaware :: VRD660 KEGE-KSLC

VRD660 :: KEGE-KSLC

FLIGHT INFORMATION

Flight Status: Arrived
Operator:
Virgin America
More flights by this operator :: More flights under this callsign
Pilot: Vimal A. (13781)
Aircraft: AIRBUS A320
(A320)
More flights by this aircraft type
Origin: KEGE Eagle Co Regl
United States
Destination: KSLC Salt Lake City Intl
United States
More flights between these airports :: More routes between these airports
Route: GYPSM5 RLG EKR LEEHY4
File this flight plan on PilotEdge
Remarks:
Altitude:
(Current/Filed)
36,000ft
Speed:
(Current/Filed)
400kts
Departed: 11-Jan-17 11:50 AM
Arrived: 11-Jan-17 12:55 PM
Distance/Time
Traveled:
242nm/1:05
Distance/Time
To Go:
Arrived

Flight Plot

Page will automatically refresh every two minutes.

Flight plan parsing failed; only flown route is shown


Map Options




Map Legend


Flown Route
Filed Route
Departure Airport
Arrival Airport
Navaid (VOR, NDB)
Fix

Horizontal Profiles

Position Reports

Time Latitude Longitude Heading Altitude Ground
Speed
11-Jan-17 11:17 39.640555 -106.915448 171 6529ft 0kts
11-Jan-17 11:18 39.640555 -106.915448 171 6529ft 0kts
11-Jan-17 11:19 39.640555 -106.915448 171 6529ft 0kts
11-Jan-17 11:20 39.640555 -106.915448 171 6529ft 0kts
11-Jan-17 11:21 39.640555 -106.915448 171 6529ft 0kts
11-Jan-17 11:22 39.640555 -106.915448 171 6529ft 0kts
11-Jan-17 11:23 39.640555 -106.915448 171 6529ft 0kts
11-Jan-17 11:24 39.640555 -106.915448 171 6529ft 0kts
11-Jan-17 11:25 39.640555 -106.915448 171 6529ft 0kts
11-Jan-17 11:26 39.640555 -106.915448 171 6529ft 0kts
11-Jan-17 11:27 39.640555 -106.915448 171 6529ft 0kts
11-Jan-17 11:28 39.640555 -106.915448 171 6529ft 0kts
11-Jan-17 11:29 39.640555 -106.915448 171 6529ft 0kts
11-Jan-17 11:30 39.640555 -106.915448 171 6529ft 0kts
11-Jan-17 11:31 39.640555 -106.915448 171 6529ft 0kts
11-Jan-17 11:32 39.640555 -106.915448 171 6529ft 0kts
11-Jan-17 11:33 39.640555 -106.915448 171 6529ft 0kts
11-Jan-17 11:34 39.640555 -106.915448 171 6529ft 0kts
11-Jan-17 11:35 39.640555 -106.915448 171 6529ft 0kts
11-Jan-17 11:36 39.640753 -106.915486 170 6529ft 2kts
11-Jan-17 11:37 39.641120 -106.915566 168 6529ft 0kts
11-Jan-17 11:38 39.641118 -106.915565 168 6529ft 0kts
11-Jan-17 11:39 39.641115 -106.915564 168 6529ft 0kts
11-Jan-17 11:40 39.641113 -106.915564 168 6529ft 0kts
11-Jan-17 11:41 39.641110 -106.915563 168 6529ft 0kts
11-Jan-17 11:42 39.641108 -106.915562 168 6529ft 0kts
11-Jan-17 11:43 39.641105 -106.915562 168 6529ft 0kts
11-Jan-17 11:44 39.641102 -106.915561 168 6529ft 0kts
11-Jan-17 11:45 39.641100 -106.915560 168 6529ft 0kts
11-Jan-17 11:46 39.641029 -106.915390 87 6529ft 6kts
11-Jan-17 11:47 39.642162 -106.911375 81 6529ft 13kts
11-Jan-17 11:48 39.642819 -106.905278 81 6529ft 20kts
11-Jan-17 11:49 39.643589 -106.900201 29 6529ft 3kts
11-Jan-17 11:50 39.642605 -106.917166 261 6579ft 139kts
11-Jan-17 11:51 39.620517 -106.962077 232 8413ft 177kts
11-Jan-17 11:52 39.598664 -107.035421 283 10311ft 268kts
11-Jan-17 11:53 39.674022 -107.082469 344 12974ft 358kts
11-Jan-17 11:54 39.775244 -107.061131 37 14969ft 416kts
11-Jan-17 11:55 39.830396 -106.925774 64 16399ft 434kts
11-Jan-17 11:56 39.881507 -106.780379 62 19358ft 451kts
11-Jan-17 11:57 39.936187 -106.629663 61 21776ft 470kts
11-Jan-17 11:58 40.038673 -106.544779 346 22896ft 448kts
11-Jan-17 11:59 40.115345 -106.641371 268 24590ft 394kts
11-Jan-17 12:00 40.109965 -106.778812 265 27726ft 369kts
11-Jan-17 12:01 40.106420 -106.912350 264 29696ft 368kts
11-Jan-17 12:02 40.101976 -107.046395 263 31278ft 371kts
11-Jan-17 12:03 40.097296 -107.180276 263 32721ft 367kts
11-Jan-17 12:04 40.092507 -107.312254 263 34078ft 361kts
11-Jan-17 12:05 40.087621 -107.442398 263 35299ft 358kts
11-Jan-17 12:06 40.082636 -107.571865 263 35681ft 355kts
11-Jan-17 12:07 40.077531 -107.700557 263 35681ft 354kts
11-Jan-17 12:08 40.072319 -107.828604 263 35679ft 353kts
11-Jan-17 12:09 40.068691 -107.956583 267 35679ft 355kts
11-Jan-17 12:10 40.072736 -108.085295 267 35679ft 355kts
11-Jan-17 12:11 40.076784 -108.214207 267 35682ft 356kts
11-Jan-17 12:12 40.080708 -108.343062 267 35685ft 357kts
11-Jan-17 12:13 40.084529 -108.473420 267 35687ft 360kts
11-Jan-17 12:14 40.088241 -108.604294 267 35687ft 362kts
11-Jan-17 12:15 40.091790 -108.736036 267 35689ft 365kts
11-Jan-17 12:16 40.095224 -108.868632 267 35688ft 366kts
11-Jan-17 12:17 40.098503 -109.001409 267 35689ft 368kts
11-Jan-17 12:18 40.101672 -109.135381 267 35687ft 371kts
11-Jan-17 12:19 40.104698 -109.270522 267 35686ft 372kts
11-Jan-17 12:20 40.107555 -109.405636 267 35686ft 373kts
11-Jan-17 12:21 40.110257 -109.540851 267 35688ft 373kts
11-Jan-17 12:22 40.112816 -109.676229 266 35690ft 373kts
11-Jan-17 12:23 40.115195 -109.811664 266 35691ft 373kts
11-Jan-17 12:24 40.117422 -109.947108 266 35693ft 373kts
11-Jan-17 12:25 40.119491 -110.082560 266 35695ft 373kts
11-Jan-17 12:26 40.121403 -110.218188 266 35701ft 374kts
11-Jan-17 12:27 40.123159 -110.354065 266 35708ft 375kts
11-Jan-17 12:28 40.124769 -110.490415 266 35707ft 376kts
11-Jan-17 12:29 40.126221 -110.627216 266 35707ft 377kts
11-Jan-17 12:30 40.127511 -110.763615 266 35109ft 370kts
11-Jan-17 12:31 40.128598 -110.898462 266 34110ft 373kts
11-Jan-17 12:32 40.129559 -111.034394 266 33110ft 376kts
11-Jan-17 12:33 40.130374 -111.171817 266 31969ft 378kts
11-Jan-17 12:34 40.130979 -111.305944 266 29343ft 365kts
11-Jan-17 12:35 40.131482 -111.441557 266 27505ft 380kts
11-Jan-17 12:36 40.143868 -111.581314 286 25275ft 406kts
11-Jan-17 12:37 40.191853 -111.713840 289 22251ft 394kts
11-Jan-17 12:38 40.238127 -111.839760 289 19147ft 374kts
11-Jan-17 12:39 40.293632 -111.952971 316 16731ft 394kts
11-Jan-17 12:40 40.388572 -112.026322 325 15463ft 393kts
11-Jan-17 12:41 40.495397 -112.060146 347 13582ft 394kts
11-Jan-17 12:42 40.602239 -112.074085 347 11574ft 380kts
11-Jan-17 12:43 40.707854 -112.087051 349 11006ft 382kts
11-Jan-17 12:44 40.813868 -112.099360 349 10998ft 383kts
11-Jan-17 12:45 40.912692 -112.110819 349 9891ft 324kts
11-Jan-17 12:46 40.995406 -112.120806 349 8355ft 284kts
11-Jan-17 12:47 41.069613 -112.118295 33 7036ft 267kts
11-Jan-17 12:48 41.076063 -112.036577 139 7001ft 227kts
11-Jan-17 12:49 41.020320 -112.005635 171 7004ft 216kts
11-Jan-17 12:50 40.962428 -111.995195 177 7005ft 203kts
11-Jan-17 12:51 40.909840 -111.988735 178 6209ft 153kts
11-Jan-17 12:52 40.871502 -111.984993 174 5330ft 138kts
11-Jan-17 12:53 40.833458 -111.979833 175 4695ft 136kts
11-Jan-17 12:54 40.796931 -111.975480 176 4241ft 96kts
11-Jan-17 12:55 40.786065 -111.974678 188 4241ft 12kts
11-Jan-17 12:56 40.785526 -111.974843 207 4241ft 3kts
11-Jan-17 12:57 40.784331 -111.976487 357 4241ft 13kts
11-Jan-17 12:58 40.785547 -111.977867 222 4241ft 1kts
11-Jan-17 12:59 40.785542 -111.977874 222 4241ft 0kts

Navigation Log

Ident Type
Flight plan parsing failed, navigation log unavailable